AQQ10 IFIS: Internet Flight Information System
logo dgac
Viernes 01 de Julio del 2022
Buscar por aerodromo o helipuerto
Ingrese nombre de aeródromo, localidad o designador OACI:
METAR del 01-07-2022 a las 14:00 UTC
Para mayor información visite www.meteochile.cl
METAR SCQP 011400Z 27002KT 9999 -RA SCT030 OVC036 08/07 Q1008
Viento: dirección 270 grados, velocidad 2 nudos
Visibilidad: 10 km o más
Débil Lluvia
Nubes: Nubosidad parcial a 3000 pies sobre el nivel del aeródromo
Nubes: Cubierto a 3600 pies sobre el nivel del aeródromo
Temperatura: 8 °C
Rocío: 7 °C
Humedad_relativa: 93%
Presión: 1008 hPa
METAR del 01-07-2022 a las 13:00 UTC
Para mayor información visite www.meteochile.cl
METAR SCQP 011300Z 28006KT 9000 -RA FEW010 BKN028 OVC044 08/08 Q1006
Viento: dirección 280 grados, velocidad 6 nudos
Visibilidad: 9000 metros
Débil Lluvia
Nubes: Escasa nubosidad a 1000 pies sobre el nivel del aeródromo
Nubes: Nublado a 2800 pies sobre el nivel del aeródromo
Nubes: Cubierto a 4400 pies sobre el nivel del aeródromo
Temperatura: 8 °C
Rocío: 8 °C
Humedad_relativa: 100%
Presión: 1006 hPa
METAR del 01-07-2022 a las 12:00 UTC
Para mayor información visite www.meteochile.cl
METAR SCQP 011200Z 27008KT 8000 -RA BKN012 OVC020 07/07 Q1005
Viento: dirección 270 grados, velocidad 8 nudos
Visibilidad: 8000 metros
Débil Lluvia
Nubes: Nublado a 1200 pies sobre el nivel del aeródromo
Nubes: Cubierto a 2000 pies sobre el nivel del aeródromo
Temperatura: 7 °C
Rocío: 7 °C
Humedad_relativa: 100%
Presión: 1005 hPa
METAR del 01-07-2022 a las 11:00 UTC
Para mayor información visite www.meteochile.cl
METAR SCQP 011100Z AUTO 27011KT 9999 -SHRA FEW010 SCT013 OVC017 08/07 Q1003
Viento: dirección 270 grados, velocidad 11 nudos
Visibilidad: 10 km o más
Débil ChubascosLluvia
Nubes: Escasa nubosidad a 1000 pies sobre el nivel del aeródromo
Nubes: Nubosidad parcial a 1300 pies sobre el nivel del aeródromo
Nubes: Cubierto a 1700 pies sobre el nivel del aeródromo
Temperatura: 8 °C
Rocío: 7 °C
Humedad_relativa: 93%
Presión: 1003 hPa
METAR del 01-07-2022 a las 10:00 UTC
Para mayor información visite www.meteochile.cl
METAR SCQP 011000Z AUTO 27012G22KT 240V300 9999 -SHRA FEW008 BKN011 OVC020 09/08 Q1001
Viento: dirección 270 grados, velocidad 12 nudos, con ráfagas de velocidad máxima de 22Nudos
Viento con dirección variable entre 240 y 300 grados
Visibilidad: 10 km o más
Débil ChubascosLluvia
Nubes: Escasa nubosidad a 800 pies sobre el nivel del aeródromo
Nubes: Nublado a 1100 pies sobre el nivel del aeródromo
Nubes: Cubierto a 2000 pies sobre el nivel del aeródromo
Temperatura: 9 °C
Rocío: 8 °C
Humedad_relativa: 93%
Presión: 1001 hPa
METAR del 01-07-2022 a las 09:00 UTC
Para mayor información visite www.meteochile.cl
METAR SCQP 010900Z AUTO 32019G29KT 290V350 9999 SHRA OVC016 10/08 Q0999
Viento: dirección 320 grados, velocidad 19 nudos, con ráfagas de velocidad máxima de 29Nudos
Viento con dirección variable entre 290 y 350 grados
Visibilidad: 10 km o más
ChubascosLluvia
Nubes: Cubierto a 1600 pies sobre el nivel del aeródromo
Temperatura: 10 °C
Rocío: 8 °C
Humedad_relativa: 87%
Presión: 999 hPa
METAR del 01-07-2022 a las 08:00 UTC
Para mayor información visite www.meteochile.cl
METAR SCQP 010800Z AUTO 35014KT 9999 -SHRA FEW018 OVC026 09/08 Q0998
Viento: dirección 350 grados, velocidad 14 nudos
Visibilidad: 10 km o más
Débil ChubascosLluvia
Nubes: Escasa nubosidad a 1800 pies sobre el nivel del aeródromo
Nubes: Cubierto a 2600 pies sobre el nivel del aeródromo
Temperatura: 9 °C
Rocío: 8 °C
Humedad_relativa: 93%
Presión: 998 hPa
METAR del 01-07-2022 a las 07:00 UTC
Para mayor información visite www.meteochile.cl
METAR SCQP 010700Z AUTO 01014KT 9999 -SHRA FEW026 OVC035 09/08 Q0999
Viento: dirección 010 grados, velocidad 14 nudos
Visibilidad: 10 km o más
Débil ChubascosLluvia
Nubes: Escasa nubosidad a 2600 pies sobre el nivel del aeródromo
Nubes: Cubierto a 3500 pies sobre el nivel del aeródromo
Temperatura: 9 °C
Rocío: 8 °C
Humedad_relativa: 93%
Presión: 999 hPa
METAR del 01-07-2022 a las 06:00 UTC
Para mayor información visite www.meteochile.cl
METAR SCQP 010600Z AUTO 02008KT 9999 FEW027 BKN035 08/08 Q0999
Viento: dirección 020 grados, velocidad 8 nudos
Visibilidad: 10 km o más
Nubes: Escasa nubosidad a 2700 pies sobre el nivel del aeródromo
Nubes: Nublado a 3500 pies sobre el nivel del aeródromo
Temperatura: 8 °C
Rocío: 8 °C
Humedad_relativa: 100%
Presión: 999 hPa
METAR del 01-07-2022 a las 05:00 UTC
Para mayor información visite www.meteochile.cl
METAR SCQP 010500Z AUTO 01005KT 9999 SCT026 BKN030 OVC040 08/08 Q1000
Viento: dirección 010 grados, velocidad 5 nudos
Visibilidad: 10 km o más
Nubes: Nubosidad parcial a 2600 pies sobre el nivel del aeródromo
Nubes: Nublado a 3000 pies sobre el nivel del aeródromo
Nubes: Cubierto a 4000 pies sobre el nivel del aeródromo
Temperatura: 8 °C
Rocío: 8 °C
Humedad_relativa: 100%
Presión: 1000 hPa